NCAR-RAP Real-Time Weather Data

Output produced by METARs form (01 October 2022  05:34 UTC)
found at http://weather.rap.ucar.edu/surface/
 
WSSS 010500Z 17007KT 9999 -SHRA FEW015 FEW017TCU FEW018CB SCT150 29/25 Q1009 TEMPO FM0515 TL0600 3000 TSRA
WSSS 010430Z 16010KT 9999 -SHRA SCT016 FEW018TCU SCT300 29/26 Q1010 TEMPO FM0500 TL0545 3000 TSRA FEW012CB BKN015
WSSS 010400Z 17007KT 130V190 9999 VCSH SCT016 FEW018TCU BKN300 29/25 Q1010 TEMPO FM0415 TL0500 4000 SHRA
WSSS 010330Z VRB03KT 9999 FEW018TCU BKN300 32/24 Q1010 NOSIG
WSSS 010300Z VRB03KT 9999 SCT018TCU BKN300 31/24 Q1010 NOSIG
WSSS 010230Z VRB04KT 9999 SCT018TCU BKN300 30/24 Q1010 NOSIG
WSSS 010200Z 36003KT 270V080 9999 SCT016 FEW018TCU BKN300 30/25 Q1010 NOSIG
WSSS 010130Z 35005KT 320V020 8000 FEW014 FEW018TCU BKN300 30/25 Q1011 NOSIG
WSSS 010100Z 34004KT 300V360 8000 FEW015 FEW018TCU BKN300 29/25 Q1010 NOSIG
WSSS 010030Z 31004KT 270V010 7000 FEW015 FEW018TCU BKN300 28/25 Q1010 NOSIG
WSSS 010000Z 31004KT 260V350 7000 FEW018TCU BKN300 28/25 Q1010 NOSIG
WSSS 302330Z 32003KT 280V350 8000 FEW018TCU BKN300 27/25 Q1009 NOSIG
WSSS 302300Z 31003KT 7000 FEW018TCU BKN300 26/25 Q1009 NOSIG
WSSS 302230Z 34003KT 7000 FEW018 BKN300 26/25 Q1009 NOSIG
WSSS 302200Z 36002KT 7000 FEW018 BKN300 26/25 Q1009 NOSIG
WSSS 302130Z 33002KT 8000 FEW018 BKN300 26/25 Q1009 NOSIG
WSSS 302100Z 32002KT 9000 FEW018 BKN300 26/25 Q1009 NOSIG
WSSS 302030Z 35002KT 9999 FEW016 BKN300 27/25 Q1008 NOSIG
WSSS 302000Z 31004KT 9999 FEW016 BKN300 27/25 Q1008 NOSIG
WSSS 301930Z 32003KT 9999 FEW016 BKN300 27/25 Q1008 NOSIG
WSSS 301900Z 34002KT 9999 FEW016 BKN300 27/25 Q1008 NOSIG
WSSS 301830Z 35003KT 9999 FEW016 FEW018CB BKN300 27/25 Q1009 NOSIG
WSSS 301800Z VRB02KT 9999 FEW018 BKN300 27/25 Q1009 NOSIG